Time;durP1;ratioP1;P1;durP2;ratioP2;P2;SDS_P1;SDS_P2;PMS_P1;PMS_P2;Temp;Humidity;BMP_temperature;BMP_pressure;BME280_temperature;BME280_humidity;BME280_pressure;Samples;Min_cycle;Max_cycle;Signal;HPM_P1;HPM_P2
2021/10/18 00:01:25;;;;;;;10.80;3.72;;;10.30;99.90;;;;;;5016067;28;20030;-82
2021/10/18 00:03:51;;;;;;;11.38;4.70;;;10.20;99.90;;;;;;5015767;28;20057;-82
2021/10/18 00:06:17;;;;;;;11.50;4.07;;;10.20;99.90;;;;;;5014547;28;20026;-81
2021/10/18 00:08:42;;;;;;;7.80;4.25;;;10.20;99.90;;;;;;5014267;28;20026;-82
2021/10/18 00:11:11;;;;;;;7.90;3.55;;;10.20;99.90;;;;;;5014233;28;20029;-82
2021/10/18 00:13:37;;;;;;;15.10;4.70;;;10.10;99.90;;;;;;5015925;28;20022;-77
2021/10/18 00:16:03;;;;;;;9.45;3.97;;;10.10;99.90;;;;;;5031224;28;20030;-77
2021/10/18 00:18:28;;;;;;;12.20;5.32;;;10.10;99.90;;;;;;5031458;28;20021;-77
2021/10/18 00:20:55;;;;;;;8.75;4.28;;;10.10;99.90;;;;;;5031458;28;20014;-77
2021/10/18 00:23:21;;;;;;;9.43;3.78;;;10.10;99.90;;;;;;5031495;28;20017;-77
2021/10/18 00:25:47;;;;;;;10.50;4.25;;;10.10;99.90;;;;;;5032898;28;20538;-78
2021/10/18 00:28:12;;;;;;;8.80;3.92;;;10.00;99.90;;;;;;5024221;28;20059;-78
2021/10/18 00:30:38;;;;;;;7.18;4.07;;;10.00;99.90;;;;;;5017724;28;20018;-82
2021/10/18 00:33:04;;;;;;;7.63;3.63;;;10.80;99.90;;;;;;5018885;28;20026;-81
2021/10/18 00:35:29;;;;;;;9.00;3.90;;;10.10;99.90;;;;;;5017510;28;20109;-81
2021/10/18 00:37:55;;;;;;;8.88;3.95;;;10.10;99.90;;;;;;5017981;28;20036;-81
2021/10/18 00:40:21;;;;;;;8.88;4.72;;;10.10;99.90;;;;;;5019620;28;20029;-77
2021/10/18 00:42:49;;;;;;;10.77;4.65;;;10.10;99.90;;;;;;5016904;28;20080;-82
2021/10/18 00:45:15;;;;;;;8.85;3.67;;;10.10;99.90;;;;;;5017622;28;20365;-82
2021/10/18 00:47:40;;;;;;;10.23;4.10;;;10.10;99.90;;;;;;5017646;28;20033;-81
2021/10/18 00:50:07;;;;;;;10.05;4.18;;;10.10;99.90;;;;;;5017822;28;20026;-81
2021/10/18 00:52:34;;;;;;;11.18;4.72;;;10.10;99.90;;;;;;5017336;28;20564;-82
2021/10/18 00:55:00;;;;;;;10.90;3.97;;;10.20;99.90;;;;;;5017196;28;20080;-82
2021/10/18 00:57:26;;;;;;;8.93;3.95;;;10.20;99.90;;;;;;5017062;28;20025;-82
2021/10/18 00:59:52;;;;;;;9.88;4.45;;;10.10;99.90;;;;;;5019737;28;20052;-82
2021/10/18 01:02:18;;;;;;;9.30;4.40;;;10.20;99.90;;;;;;5017443;28;20029;-82
2021/10/18 01:04:44;;;;;;;12.55;4.05;;;10.20;99.90;;;;;;5016822;28;20072;-82
2021/10/18 01:07:10;;;;;;;11.63;4.15;;;10.10;99.90;;;;;;5018600;28;20022;-82
2021/10/18 01:09:35;;;;;;;8.55;3.90;;;10.10;99.90;;;;;;5018483;28;20080;-81
2021/10/18 01:12:01;;;;;;;15.02;4.20;;;10.10;99.90;;;;;;5018280;28;20156;-82
2021/10/18 01:14:27;;;;;;;11.80;4.68;;;10.10;99.90;;;;;;5016853;28;20033;-81
2021/10/18 01:16:53;;;;;;;11.05;4.30;;;10.10;99.90;;;;;;5014838;28;20022;-77
2021/10/18 01:19:23;;;;;;;14.30;4.20;;;10.00;99.90;;;;;;5015523;28;20018;-77
2021/10/18 01:21:54;;;;;;;8.63;3.88;;;10.00;99.90;;;;;;5014126;28;20021;-77
2021/10/18 01:24:20;;;;;;;11.95;4.28;;;10.00;99.90;;;;;;5029695;28;20536;-77
2021/10/18 01:26:45;;;;;;;18.85;4.47;;;10.00;99.90;;;;;;5035091;28;20022;-77
2021/10/18 01:29:11;;;;;;;11.23;4.57;;;10.00;99.90;;;;;;5035100;28;20033;-77
2021/10/18 01:31:40;;;;;;;10.70;4.72;;;9.90;99.90;;;;;;5033754;28;20022;-77
2021/10/18 01:34:06;;;;;;;7.18;4.00;;;9.90;99.90;;;;;;5032755;28;20017;-77
2021/10/18 01:36:32;;;;;;;10.30;4.43;;;9.90;99.90;;;;;;5015876;28;20582;-78
2021/10/18 01:38:58;;;;;;;10.43;4.03;;;9.90;99.90;;;;;;5015661;28;20025;-79
2021/10/18 01:41:23;;;;;;;7.93;3.65;;;9.90;99.90;;;;;;5018497;28;20084;-79
2021/10/18 01:43:49;;;;;;;16.42;4.93;;;9.80;99.90;;;;;;5016707;28;20101;-79
2021/10/18 01:46:15;;;;;;;13.40;6.18;;;9.80;99.90;;;;;;5015571;28;20034;-78
2021/10/18 01:48:40;;;;;;;10.48;5.05;;;9.70;99.90;;;;;;5024308;28;20466;-78
2021/10/18 01:51:08;;;;;;;9.85;3.63;;;9.70;99.90;;;;;;5035469;28;20033;-78
2021/10/18 01:53:34;;;;;;;9.05;4.72;;;9.60;99.90;;;;;;5034715;28;20056;-79
2021/10/18 01:55:59;;;;;;;14.57;4.80;;;9.60;99.90;;;;;;5035925;28;20462;-79
2021/10/18 01:58:25;;;;;;;10.00;4.45;;;9.50;99.90;;;;;;5034682;28;20079;-78
2021/10/18 02:00:51;;;;;;;8.02;4.25;;;9.50;99.90;;;;;;5033950;28;20025;-78
2021/10/18 02:03:16;;;;;;;9.63;4.82;;;9.50;99.90;;;;;;5028959;28;20037;-79
2021/10/18 02:05:42;;;;;;;9.63;4.38;;;9.40;99.90;;;;;;5031550;28;20093;-79
2021/10/18 02:08:07;;;;;;;12.07;5.53;;;9.40;99.90;;;;;;5033328;28;20395;-78
2021/10/18 02:10:33;;;;;;;10.73;4.63;;;9.30;99.90;;;;;;5034649;28;20562;-78
2021/10/18 02:12:59;;;;;;;9.70;4.78;;;9.30;99.90;;;;;;5033485;28;20025;-78
2021/10/18 02:15:24;;;;;;;12.93;5.20;;;9.20;99.90;;;;;;5033544;28;20467;-78
2021/10/18 02:17:50;;;;;;;12.55;5.22;;;9.20;99.90;;;;;;5028940;28;20025;-78
2021/10/18 02:20:16;;;;;;;10.43;4.88;;;9.10;99.90;;;;;;5013628;28;20070;-78
2021/10/18 02:22:42;;;;;;;10.27;4.75;;;9.10;99.90;;;;;;5013512;28;20403;-78
2021/10/18 02:25:10;;;;;;;8.90;4.30;;;9.00;99.90;;;;;;5013390;28;20390;-78
2021/10/18 02:27:36;;;;;;;12.40;5.32;;;9.00;99.90;;;;;;5014647;28;20069;-79
2021/10/18 02:30:04;;;;;;;10.35;4.93;;;8.90;99.90;;;;;;5013410;28;20057;-78
2021/10/18 02:32:30;;;;;;;10.93;4.95;;;8.90;99.90;;;;;;5013347;28;20103;-79
2021/10/18 02:34:56;;;;;;;12.82;4.80;;;8.80;99.90;;;;;;5015091;28;20037;-78
2021/10/18 02:37:21;;;;;;;11.40;4.75;;;8.80;99.90;;;;;;5015098;28;20033;-79
2021/10/18 02:39:47;;;;;;;11.05;4.95;;;8.70;99.90;;;;;;5012956;28;20021;-79
2021/10/18 02:42:14;;;;;;;11.05;5.20;;;8.70;99.90;;;;;;5014375;28;20076;-78
2021/10/18 02:44:39;;;;;;;8.73;4.15;;;8.70;99.90;;;;;;5014375;28;20468;-78
2021/10/18 02:47:07;;;;;;;10.40;4.82;;;8.60;99.90;;;;;;5014252;28;20479;-78
2021/10/18 02:49:33;;;;;;;10.45;5.13;;;8.50;99.90;;;;;;5013824;28;20018;-77
2021/10/18 02:51:58;;;;;;;8.65;4.13;;;8.50;99.90;;;;;;5013760;28;20046;-77
2021/10/18 02:54:24;;;;;;;10.32;4.28;;;8.50;99.90;;;;;;5013917;28;20484;-77
2021/10/18 02:56:49;;;;;;;12.43;5.35;;;8.50;99.90;;;;;;5014260;28;20022;-77
2021/10/18 02:59:15;;;;;;;22.23;5.78;;;8.40;99.90;;;;;;5014101;28;20021;-77
2021/10/18 03:01:40;;;;;;;13.63;5.60;;;8.40;99.90;;;;;;5013964;28;20026;-77
2021/10/18 03:04:06;;;;;;;12.57;5.28;;;8.40;99.90;;;;;;5013641;28;20046;-77
2021/10/18 03:06:31;;;;;;;11.15;5.82;;;8.40;99.90;;;;;;5027049;28;20040;-77
2021/10/18 03:08:58;;;;;;;11.88;5.65;;;8.40;99.90;;;;;;5033433;28;20034;-77
2021/10/18 03:11:24;;;;;;;12.82;5.53;;;8.30;99.90;;;;;;5033541;28;20100;-78
2021/10/18 03:13:49;;;;;;;14.68;6.30;;;8.30;99.90;;;;;;5032362;28;20107;-79
2021/10/18 03:16:15;;;;;;;11.73;5.03;;;8.20;99.90;;;;;;5033676;28;20183;-80
2021/10/18 03:18:40;;;;;;;15.00;5.40;;;8.30;99.90;;;;;;5034403;28;20025;-79
2021/10/18 03:21:06;;;;;;;9.20;4.80;;;8.30;99.90;;;;;;5032378;28;20021;-77
2021/10/18 03:23:31;;;;;;;11.40;5.38;;;8.20;99.90;;;;;;5033097;28;20022;-76
2021/10/18 03:25:57;;;;;;;10.35;5.22;;;8.20;99.90;;;;;;5031930;28;20080;-76
2021/10/18 03:28:22;;;;;;;16.15;5.55;;;8.10;99.90;;;;;;5033149;28;20033;-76
2021/10/18 03:30:48;;;;;;;13.20;6.07;;;8.10;99.90;;;;;;5032994;28;20025;-76
2021/10/18 03:33:15;;;;;;;12.23;5.47;;;8.10;99.90;;;;;;5031749;28;20466;-77
2021/10/18 03:35:41;;;;;;;14.05;6.40;;;8.10;99.90;;;;;;5033385;28;20040;-76
2021/10/18 03:38:06;;;;;;;12.18;6.05;;;8.90;99.90;;;;;;5030232;28;20391;-76
2021/10/18 03:40:32;;;;;;;17.23;6.15;;;8.00;99.90;;;;;;5033297;28;20036;-76
2021/10/18 03:42:57;;;;;;;14.55;5.82;;;8.00;99.90;;;;;;5032929;28;20033;-77
2021/10/18 03:45:23;;;;;;;12.60;6.20;;;8.00;99.90;;;;;;5031485;28;20076;-76
2021/10/18 03:47:48;;;;;;;12.45;6.90;;;8.00;99.90;;;;;;5031860;28;20022;-76
2021/10/18 03:50:15;;;;;;;12.70;5.35;;;8.00;99.90;;;;;;5033540;28;20029;-77
2021/10/18 03:52:42;;;;;;;14.60;6.55;;;8.00;99.90;;;;;;5012922;28;20049;-76
2021/10/18 03:55:08;;;;;;;10.57;5.68;;;8.00;99.90;;;;;;5011830;28;20392;-76
2021/10/18 03:57:33;;;;;;;18.38;6.45;;;7.90;99.90;;;;;;5013054;28;20026;-76
2021/10/18 03:59:59;;;;;;;14.38;6.18;;;7.90;99.90;;;;;;5013167;28;20557;-76
2021/10/18 04:02:25;;;;;;;16.73;6.65;;;7.90;99.90;;;;;;5013860;28;20072;-76
2021/10/18 04:04:50;;;;;;;17.60;5.57;;;7.90;99.90;;;;;;5027114;28;20034;-77
2021/10/18 04:07:16;;;;;;;13.23;5.55;;;7.90;99.90;;;;;;5035331;28;20394;-76
2021/10/18 04:09:45;;;;;;;12.00;6.50;;;7.80;99.90;;;;;;5037249;28;20068;-77
2021/10/18 04:12:10;;;;;;;;;;;7.80;99.90;;;;;;5037085;28;20021;-77
2021/10/18 04:14:36;;;;;;;15.85;5.88;;;7.80;99.90;;;;;;5036863;28;19955;-77
2021/10/18 04:17:02;;;;;;;14.98;6.75;;;7.80;99.90;;;;;;5036732;28;20128;-77
2021/10/18 04:19:27;;;;;;;18.48;6.95;;;7.80;99.90;;;;;;5017346;28;20109;-77
2021/10/18 04:21:53;;;;;;;14.15;6.60;;;7.80;99.90;;;;;;5015487;28;20056;-77
2021/10/18 04:24:18;;;;;;;14.20;6.47;;;7.80;99.90;;;;;;5015471;28;20468;-77
2021/10/18 04:26:44;;;;;;;14.27;6.32;;;7.70;99.90;;;;;;5016802;28;20383;-80
2021/10/18 04:29:09;;;;;;;15.82;7.25;;;7.70;99.90;;;;;;5019300;28;20018;-82
2021/10/18 04:31:35;;;;;;;13.98;6.47;;;7.70;99.90;;;;;;5017250;28;20030;-80
2021/10/18 04:34:01;;;;;;;12.50;6.35;;;7.70;99.90;;;;;;5017422;28;20033;-81
2021/10/18 04:36:28;;;;;;;14.55;6.32;;;7.60;99.90;;;;;;5017410;28;20028;-81
2021/10/18 04:38:53;;;;;;;14.90;7.57;;;7.60;99.90;;;;;;5017091;28;20049;-80
2021/10/18 04:41:19;;;;;;;11.88;6.53;;;7.60;99.90;;;;;;5018496;28;20033;-80
2021/10/18 04:43:45;;;;;;;14.48;6.80;;;7.60;99.90;;;;;;5036414;28;20029;-80
2021/10/18 04:46:11;;;;;;;15.57;6.63;;;7.60;99.90;;;;;;5037450;28;20018;-80
2021/10/18 04:48:37;;;;;;;14.43;6.22;;;7.60;99.90;;;;;;5037784;28;20025;-81
2021/10/18 04:51:03;;;;;;;17.15;6.72;;;7.60;99.90;;;;;;5036149;28;20375;-80
2021/10/18 04:53:28;;;;;;;17.30;6.38;;;7.50;99.90;;;;;;5036658;28;20165;-80
2021/10/18 04:55:54;;;;;;;12.65;6.75;;;7.50;99.90;;;;;;5035999;28;20075;-80
2021/10/18 04:58:19;;;;;;;20.50;6.82;;;7.50;99.90;;;;;;5038413;28;20065;-80
2021/10/18 05:00:47;;;;;;;15.55;7.38;;;7.50;99.90;;;;;;5036483;28;20014;-80
2021/10/18 05:03:14;;;;;;;17.20;7.03;;;7.50;99.90;;;;;;5036750;28;20013;-80
2021/10/18 05:05:40;;;;;;;14.40;6.15;;;7.60;99.90;;;;;;5021765;28;20374;-80
2021/10/18 05:08:10;;;;;;;13.85;6.68;;;7.60;99.90;;;;;;5021350;28;20060;-81
2021/10/18 05:10:37;;;;;;;14.20;6.78;;;7.60;99.90;;;;;;5017660;28;20079;-82
2021/10/18 05:13:05;;;;;;;13.70;6.75;;;7.50;99.90;;;;;;5016571;28;20022;-80
2021/10/18 05:15:31;;;;;;;17.25;6.55;;;7.50;99.90;;;;;;5017397;28;20030;-81
2021/10/18 05:17:56;;;;;;;13.32;6.47;;;7.50;99.90;;;;;;5016259;28;20018;-80
2021/10/18 05:20:22;;;;;;;16.15;7.05;;;7.50;99.90;;;;;;5020582;28;20025;-78
2021/10/18 05:22:48;;;;;;;18.30;7.03;;;7.50;99.90;;;;;;5035340;28;20022;-77
2021/10/18 05:25:14;;;;;;;20.00;7.38;;;7.50;99.90;;;;;;5034241;28;20382;-77
2021/10/18 05:27:40;;;;;;;17.15;6.97;;;7.50;99.90;;;;;;5034083;28;20394;-76
2021/10/18 05:30:08;;;;;;;21.27;7.43;;;7.50;99.90;;;;;;5033735;28;20025;-76
2021/10/18 05:32:34;;;;;;;16.63;7.22;;;7.40;99.90;;;;;;5034899;28;20589;-76
2021/10/18 05:34:59;;;;;;;14.90;6.60;;;7.40;99.90;;;;;;5034886;28;20021;-76
2021/10/18 05:37:25;;;;;;;16.45;7.43;;;7.40;99.90;;;;;;5033652;28;20037;-76
2021/10/18 05:39:50;;;;;;;14.77;6.50;;;7.40;99.90;;;;;;5034840;28;20360;-76
2021/10/18 05:42:17;;;;;;;19.52;7.13;;;7.40;99.90;;;;;;5034960;28;20031;-76
2021/10/18 05:44:43;;;;;;;21.95;7.97;;;7.40;99.90;;;;;;5033471;28;20371;-76
2021/10/18 05:47:09;;;;;;;17.17;7.63;;;7.30;99.90;;;;;;5034786;28;20021;-77
2021/10/18 05:49:35;;;;;;;15.00;6.70;;;7.40;99.90;;;;;;5029978;28;20034;-78
2021/10/18 05:52:01;;;;;;;14.82;7.10;;;7.40;99.90;;;;;;5013605;28;20395;-79
2021/10/18 05:54:27;;;;;;;12.32;6.25;;;7.40;99.90;;;;;;5013676;28;20057;-79
2021/10/18 05:56:52;;;;;;;14.05;6.63;;;7.40;99.90;;;;;;5015188;28;20061;-78
2021/10/18 05:59:19;;;;;;;17.15;7.95;;;7.40;99.90;;;;;;5013733;28;20113;-78
2021/10/18 06:01:44;;;;;;;17.65;6.93;;;7.40;99.90;;;;;;5015151;28;20042;-78
2021/10/18 06:04:10;;;;;;;16.70;7.20;;;7.40;99.90;;;;;;5019394;28;20434;-78
2021/10/18 06:06:36;;;;;;;17.25;7.45;;;7.30;99.90;;;;;;5034396;28;20479;-79
2021/10/18 06:09:03;;;;;;;15.38;7.78;;;7.30;99.90;;;;;;5033582;28;20025;-80
2021/10/18 06:11:29;;;;;;;14.48;7.05;;;7.30;99.90;;;;;;5035468;28;20112;-80
2021/10/18 06:13:55;;;;;;;17.40;7.07;;;7.30;99.90;;;;;;5034842;28;20034;-80
2021/10/18 06:16:20;;;;;;;19.27;7.53;;;7.30;99.90;;;;;;5036679;28;20029;-80
2021/10/18 06:18:46;;;;;;;19.88;7.60;;;7.30;99.90;;;;;;5021982;28;20029;-81
2021/10/18 06:21:12;;;;;;;17.73;7.72;;;7.40;99.90;;;;;;5015392;28;20048;-81
2021/10/18 06:23:37;;;;;;;15.48;7.13;;;7.40;99.90;;;;;;5013219;28;20026;-76
2021/10/18 06:26:03;;;;;;;18.45;8.18;;;7.40;99.90;;;;;;5015680;28;20022;-81
2021/10/18 06:28:28;;;;;;;16.92;8.25;;;7.40;99.90;;;;;;5019601;28;20053;-80
2021/10/18 06:30:54;;;;;;;18.45;7.63;;;7.40;99.90;;;;;;5034741;28;20034;-80
2021/10/18 06:33:21;;;;;;;19.90;7.90;;;7.50;99.90;;;;;;5034645;28;20463;-80
2021/10/18 06:35:47;;;;;;;20.33;7.82;;;7.60;99.90;;;;;;5020018;28;20376;-80
2021/10/18 06:38:22;;;;;;;19.55;7.85;;;7.60;99.90;;;;;;5014537;28;20025;-80
2021/10/18 06:40:48;;;;;;;17.80;7.80;;;7.60;99.90;;;;;;5015265;28;20048;-80
2021/10/18 06:43:15;;;;;;;18.45;8.73;;;7.70;99.90;;;;;;5014884;28;20378;-80
2021/10/18 06:45:41;;;;;;;16.42;7.78;;;7.70;99.90;;;;;;5015162;28;20032;-80
2021/10/18 06:48:08;;;;;;;23.60;9.15;;;7.70;99.90;;;;;;5018902;28;20418;-81
2021/10/18 06:50:38;;;;;;;16.50;7.63;;;7.80;99.90;;;;;;5035983;28;20501;-80
2021/10/18 06:53:07;;;;;;;19.88;8.10;;;7.80;99.90;;;;;;5034930;28;20033;-80
2021/10/18 06:55:33;;;;;;;17.80;8.02;;;7.90;99.90;;;;;;5017468;28;20034;-80
2021/10/18 06:57:59;;;;;;;20.08;8.63;;;7.90;99.90;;;;;;5014906;28;20493;-80
2021/10/18 07:00:25;;;;;;;21.15;8.88;;;8.00;99.90;;;;;;5015672;28;20406;-80
2021/10/18 07:02:51;;;;;;;22.30;9.27;;;8.00;99.90;;;;;;5015465;28;20022;-81
2021/10/18 07:05:17;;;;;;;17.42;7.72;;;8.10;99.90;;;;;;5014491;28;20025;-80
2021/10/18 07:07:43;;;;;;;19.65;8.38;;;8.20;99.90;;;;;;5020558;28;20466;-81
2021/10/18 07:10:09;;;;;;;18.80;8.68;;;8.20;99.90;;;;;;5034303;28;20018;-80
2021/10/18 07:12:36;;;;;;;18.23;8.68;;;8.30;99.90;;;;;;5034010;28;20029;-80
2021/10/18 07:15:03;;;;;;;17.33;7.97;;;8.30;99.90;;;;;;5035196;28;20029;-80
2021/10/18 07:17:28;;;;;;;22.92;9.13;;;8.40;99.90;;;;;;5034227;28;20108;-80
2021/10/18 07:19:58;;;;;;;21.27;8.18;;;8.40;99.90;;;;;;5036279;28;20060;-80
2021/10/18 07:22:27;;;;;;;21.65;8.77;;;8.50;99.90;;;;;;5034575;28;20089;-79
2021/10/18 07:24:53;;;;;;;19.75;9.07;;;8.50;99.90;;;;;;5030077;28;20022;-80
2021/10/18 07:27:20;;;;;;;20.40;8.68;;;8.60;99.90;;;;;;5033844;28;20057;-80
2021/10/18 07:29:46;;;;;;;18.20;9.07;;;8.70;99.90;;;;;;5034749;28;20028;-80
2021/10/18 07:32:12;;;;;;;18.95;8.60;;;8.80;99.90;;;;;;5033803;28;20533;-81
2021/10/18 07:34:37;;;;;;;16.63;8.63;;;8.80;99.90;;;;;;5035138;28;20040;-81
2021/10/18 07:37:04;;;;;;;22.80;9.20;;;8.90;99.90;;;;;;5036301;28;20091;-81
2021/10/18 07:39:30;;;;;;;19.35;9.00;;;9.00;99.90;;;;;;5037802;28;20022;-80
2021/10/18 07:41:57;;;;;;;21.05;8.52;;;9.00;99.90;;;;;;5032744;28;20018;-80
2021/10/18 07:44:25;;;;;;;21.90;9.10;;;9.10;99.90;;;;;;5019435;28;20018;-81
2021/10/18 07:46:52;;;;;;;21.92;8.80;;;9.30;99.90;;;;;;5018148;28;20398;-81
2021/10/18 07:49:18;;;;;;;20.80;9.75;;;9.30;99.90;;;;;;5020042;28;20052;-81
2021/10/18 07:51:43;;;;;;;22.73;10.15;;;9.30;99.90;;;;;;5019792;28;20069;-81
2021/10/18 07:54:09;;;;;;;19.05;8.75;;;9.30;99.90;;;;;;5019192;28;20025;-81
2021/10/18 07:56:35;;;;;;;20.58;8.82;;;10.80;99.90;;;;;;5018231;28;20545;-78
2021/10/18 07:59:00;;;;;;;26.20;10.20;;;9.50;99.90;;;;;;5017806;28;20049;-78
2021/10/18 08:01:26;;;;;;;19.25;8.88;;;9.60;99.90;;;;;;5016315;28;20025;-78
2021/10/18 08:03:52;;;;;;;18.77;9.57;;;9.60;99.90;;;;;;5018072;28;20091;-78
2021/10/18 08:06:17;;;;;;;20.40;9.93;;;9.70;99.90;;;;;;5015875;28;20095;-78
2021/10/18 08:08:51;;;;;;;19.45;9.55;;;9.80;99.90;;;;;;5016898;28;20030;-78
2021/10/18 08:11:17;;;;;;;23.58;9.65;;;9.90;99.90;;;;;;5016983;28;20025;-78
2021/10/18 08:13:43;;;;;;;23.08;9.38;;;10.00;99.90;;;;;;5016785;28;20080;-78
2021/10/18 08:16:09;;;;;;;23.33;9.85;;;10.10;99.90;;;;;;5016810;28;20030;-78
2021/10/18 08:18:34;;;;;;;21.88;9.77;;;10.20;99.90;;;;;;5028134;28;20045;-79
2021/10/18 08:21:00;;;;;;;20.85;8.68;;;10.30;99.90;;;;;;5035430;28;20543;-79
2021/10/18 08:23:26;;;;;;;21.15;9.90;;;10.40;99.90;;;;;;5035373;28;20108;-78
2021/10/18 08:25:51;;;;;;;19.63;8.45;;;10.50;99.90;;;;;;5036233;28;20035;-78
2021/10/18 08:28:18;;;;;;;20.60;8.98;;;10.50;99.90;;;;;;5035130;28;20032;-78
2021/10/18 08:30:43;;;;;;;22.20;9.65;;;10.60;99.90;;;;;;5036446;28;20029;-78
2021/10/18 08:33:09;;;;;;;21.38;8.82;;;10.60;99.90;;;;;;5034948;28;20041;-78
2021/10/18 08:35:34;;;;;;;20.25;9.00;;;10.70;99.90;;;;;;5036280;28;20025;-78
2021/10/18 08:45:52;;;;;;;23.35;9.38;;;11.10;99.90;;;;;;5036487;28;20029;-78
2021/10/18 08:48:18;;;;;;;22.95;9.30;;;11.20;99.90;;;;;;5034528;28;20052;-78
2021/10/18 08:50:44;;;;;;;17.60;8.52;;;11.30;99.90;;;;;;5030304;28;20490;-78
2021/10/18 08:53:10;;;;;;;20.65;8.85;;;11.40;99.90;;;;;;5016331;28;20030;-78
2021/10/18 08:55:37;;;;;;;22.90;9.20;;;11.40;99.90;;;;;;5016785;28;20037;-78
2021/10/18 08:58:04;;;;;;;23.90;9.43;;;11.40;99.90;;;;;;5015085;28;20024;-79
2021/10/18 09:00:50;;;;;;;18.77;7.88;;;11.50;99.90;;;;;;5014873;28;20506;-78
2021/10/18 09:03:33;;;;;;;22.85;9.10;;;11.50;99.90;;;;;;5015294;28;20095;-79
2021/10/18 09:06:17;;;;;;;20.90;8.25;;;11.60;99.90;;;;;;5032529;28;20383;-78
2021/10/18 09:08:51;;;;;;;24.40;9.38;;;11.60;99.90;;;;;;5034421;28;20021;-78
2021/10/18 09:11:20;;;;;;;19.25;8.43;;;11.80;99.90;;;;;;5034435;28;20183;-78
2021/10/18 09:13:51;;;;;;;20.67;8.52;;;11.90;99.90;;;;;;5035729;28;20479;-79
2021/10/18 09:16:29;;;;;;;20.60;8.07;;;12.00;99.90;;;;;;5034814;28;20490;-78
2021/10/18 09:19:18;;;;;;;21.83;8.88;;;12.20;99.90;;;;;;5035600;28;20030;-78
2021/10/18 09:21:48;;;;;;;18.60;8.52;;;12.30;99.90;;;;;;5015660;28;20030;-78
2021/10/18 09:24:40;;;;;;;18.60;8.27;;;12.30;99.90;;;;;;5015964;28;20022;-79
2021/10/18 09:27:09;;;;;;;17.30;7.90;;;12.30;99.90;;;;;;5017532;28;20052;-78
2021/10/18 09:29:46;;;;;;;18.23;9.13;;;12.30;99.90;;;;;;5016830;28;20542;-78
2021/10/18 09:32:25;;;;;;;22.00;8.82;;;12.30;99.90;;;;;;5015808;28;20168;-78
2021/10/18 09:35:06;;;;;;;18.80;9.02;;;12.20;99.90;;;;;;5015842;28;20037;-76
2021/10/18 09:37:40;;;;;;;16.77;7.53;;;12.30;99.90;;;;;;5030183;28;20613;-76
2021/10/18 09:40:08;;;;;;;17.60;7.97;;;12.30;99.90;;;;;;5013942;28;20053;-77
2021/10/18 09:42:33;;;;;;;20.05;8.40;;;12.30;99.90;;;;;;5014815;28;20364;-76
2021/10/18 09:45:23;;;;;;;17.70;8.73;;;12.40;99.90;;;;;;5026217;28;20039;-76
2021/10/18 10:53:15;;;;;;;14.75;6.07;;;14.00;99.90;;;;;;5014369;28;20398;-77
2021/10/18 10:55:41;;;;;;;13.70;6.00;;;14.00;99.90;;;;;;5014325;28;20101;-77
2021/10/18 10:58:30;;;;;;;15.18;6.40;;;14.10;99.90;;;;;;5014401;28;20101;-78
2021/10/18 11:00:55;;;;;;;13.55;6.55;;;14.20;99.90;;;;;;5007112;28;20034;-78
2021/10/18 11:03:30;;;;;;;14.43;6.15;;;14.20;99.90;;;;;;5013803;28;20022;-79
2021/10/18 11:06:02;;;;;;;15.35;5.80;;;14.20;99.90;;;;;;5016222;28;20112;-79
2021/10/18 11:08:37;;;;;;;16.05;6.53;;;14.30;99.90;;;;;;5017650;28;20113;-79
2021/10/18 11:11:18;;;;;;;17.38;6.75;;;14.40;99.90;;;;;;5015864;28;20026;-79
2021/10/18 11:13:49;;;;;;;15.85;6.05;;;14.50;99.90;;;;;;5017484;28;20109;-79
2021/10/18 11:16:15;;;;;;;15.00;6.88;;;14.50;99.90;;;;;;5015345;28;20022;-79
2021/10/18 11:18:41;;;;;;;15.93;6.82;;;14.60;99.90;;;;;;5016243;28;20025;-79
2021/10/18 11:21:18;;;;;;;17.83;6.32;;;16.40;99.90;;;;;;5016103;28;20026;-79
2021/10/18 11:23:59;;;;;;;15.20;6.07;;;14.80;99.90;;;;;;5016090;28;20479;-79
2021/10/18 11:26:27;;;;;;;12.98;5.97;;;14.80;99.90;;;;;;5019054;28;20056;-80
2021/10/18 11:28:57;;;;;;;15.43;5.63;;;14.80;99.90;;;;;;5016354;28;20033;-79
2021/10/18 11:31:41;;;;;;;17.92;5.72;;;14.90;99.90;;;;;;5017178;28;20483;-79
2021/10/18 11:34:11;;;;;;;15.27;6.43;;;14.90;99.90;;;;;;5017067;28;20498;-79
2021/10/18 11:36:42;;;;;;;13.80;6.18;;;14.80;99.90;;;;;;5016536;28;20116;-79
2021/10/18 11:39:14;;;;;;;12.18;5.53;;;14.80;99.90;;;;;;5018827;28;20480;-79
2021/10/18 11:41:58;;;;;;;14.65;5.72;;;14.90;99.90;;;;;;5025083;28;20028;-78
2021/10/18 11:44:43;;;;;;;13.45;5.53;;;14.90;99.90;;;;;;5038203;28;20026;-78
2021/10/18 11:47:24;;;;;;;12.90;5.68;;;15.00;99.90;;;;;;5038024;28;20108;-78
2021/10/18 11:50:19;;;;;;;11.90;5.65;;;14.90;99.90;;;;;;5035664;28;20547;-78
2021/10/18 11:52:54;;;;;;;15.85;6.18;;;14.90;99.90;;;;;;5038394;28;20044;-78
2021/10/18 11:55:24;;;;;;;14.63;5.80;;;14.90;99.90;;;;;;5035977;28;20563;-78
2021/10/18 11:57:51;;;;;;;13.30;6.13;;;14.90;99.90;;;;;;5035319;28;20478;-78
2021/10/18 12:00:21;;;;;;;12.93;6.28;;;14.90;99.90;;;;;;5035125;28;20029;-78
2021/10/18 12:02:47;;;;;;;13.48;6.13;;;15.00;99.90;;;;;;5037173;28;20033;-78
2021/10/18 12:05:14;;;;;;;12.43;5.57;;;14.90;99.90;;;;;;5037680;28;20151;-78
2021/10/18 12:07:42;;;;;;;12.55;6.00;;;14.90;99.90;;;;;;5036472;28;20506;-78
2021/10/18 12:10:15;;;;;;;13.57;5.65;;;15.00;99.90;;;;;;5036631;28;20026;-78
2021/10/18 12:13:05;;;;;;;12.27;5.75;;;14.90;99.90;;;;;;5037726;28;20029;-78
2021/10/18 12:15:33;;;;;;;13.05;5.60;;;15.00;99.90;;;;;;5036626;28;20079;-78
2021/10/18 12:17:59;;;;;;;10.55;5.78;;;15.00;99.90;;;;;;5032955;28;20398;-78
2021/10/18 12:20:25;;;;;;;12.93;5.95;;;15.00;99.90;;;;;;5019987;28;20026;-78
2021/10/18 12:23:09;;;;;;;11.80;5.55;;;15.00;99.90;;;;;;5013547;28;20018;-78
2021/10/18 12:25:37;;;;;;;12.15;5.78;;;15.00;99.90;;;;;;5015844;28;20100;-78
2021/10/18 12:28:24;;;;;;;10.52;4.97;;;15.00;99.90;;;;;;5017559;28;20026;-78
2021/10/18 12:30:50;;;;;;;13.95;5.63;;;15.10;99.90;;;;;;5017229;28;20070;-78
2021/10/18 12:33:16;;;;;;;16.00;5.72;;;15.20;99.90;;;;;;5016814;28;20033;-78
2021/10/18 12:35:42;;;;;;;13.07;6.03;;;15.30;99.90;;;;;;5023508;28;20033;-78
2021/10/18 12:38:12;;;;;;;11.95;5.20;;;15.40;99.90;;;;;;5022579;28;20104;-78
2021/10/18 12:40:39;;;;;;;13.55;5.97;;;15.60;99.90;;;;;;5015685;28;20117;-78
2021/10/18 12:43:05;;;;;;;14.35;5.82;;;15.60;99.90;;;;;;5036656;28;20044;-78
2021/10/18 12:45:35;;;;;;;12.30;5.35;;;16.60;99.90;;;;;;5036490;28;20040;-81
2021/10/18 12:48:02;;;;;;;13.75;5.65;;;15.60;99.90;;;;;;5037975;28;20037;-81
2021/10/18 12:50:30;;;;;;;13.52;6.00;;;15.60;99.90;;;;;;5037805;28;20074;-81
2021/10/18 12:52:58;;;;;;;10.98;5.35;;;15.60;99.90;;;;;;5037854;28;20099;-82
2021/10/18 12:55:25;;;;;;;13.15;5.35;;;15.50;99.90;;;;;;5038317;28;20032;-81
2021/10/18 12:57:53;;;;;;;11.73;4.90;;;17.30;99.90;;;;;;5037564;28;20022;-82
2021/10/18 13:00:27;;;;;;;13.55;5.38;;;15.40;99.90;;;;;;5037011;28;20041;-82
2021/10/18 13:02:54;;;;;;;11.75;5.85;;;15.40;99.90;;;;;;5037950;28;20057;-82
2021/10/18 13:05:25;;;;;;;12.07;5.18;;;15.40;99.90;;;;;;5037505;28;20036;-82
2021/10/18 13:07:59;;;;;;;10.90;5.53;;;15.40;99.90;;;;;;5020898;28;20026;-81
2021/10/18 13:10:30;;;;;;;10.65;4.95;;;15.40;99.90;;;;;;5018307;28;20507;-82
2021/10/18 13:12:58;;;;;;;10.70;5.10;;;15.30;99.90;;;;;;5019606;28;20049;-81
2021/10/18 13:15:24;;;;;;;11.85;5.65;;;15.40;99.90;;;;;;5018172;28;20030;-82
2021/10/18 13:17:50;;;;;;;14.40;6.30;;;15.40;99.90;;;;;;5019485;28;20474;-82
2021/10/18 13:20:19;;;;;;;12.77;5.80;;;15.50;99.90;;;;;;5018623;28;20033;-82
2021/10/18 13:22:46;;;;;;;;;;;15.50;99.90;;;;;;5028746;28;20022;-81
2021/10/18 13:25:13;;;;;;;14.45;5.10;;;15.50;99.90;;;;;;5036534;28;19909;-77
2021/10/18 13:27:40;;;;;;;13.45;4.80;;;15.50;99.90;;;;;;5035521;28;20026;-77
2021/10/18 13:30:08;;;;;;;11.45;5.07;;;15.40;99.90;;;;;;5034818;28;20457;-77
2021/10/18 13:32:35;;;;;;;10.82;4.63;;;15.40;99.90;;;;;;5034993;28;20025;-77
2021/10/18 13:35:03;;;;;;;11.85;4.60;;;15.30;99.90;;;;;;5032563;28;20044;-77
2021/10/18 13:37:29;;;;;;;14.07;5.03;;;15.30;99.90;;;;;;5036796;28;20033;-81
2021/10/18 13:39:54;;;;;;;11.85;4.88;;;15.40;99.90;;;;;;5018306;28;20022;-81
2021/10/18 13:42:20;;;;;;;12.43;5.30;;;15.70;99.90;;;;;;5017382;28;20018;-77
2021/10/18 13:44:46;;;;;;;11.20;4.70;;;16.30;99.90;;;;;;5013741;28;20026;-77
2021/10/18 13:47:15;;;;;;;14.43;4.50;;;16.70;99.90;;;;;;5015738;28;20028;-77
2021/10/18 13:49:40;;;;;;;9.57;4.75;;;16.90;99.90;;;;;;5015042;28;20491;-77
2021/10/18 13:52:06;;;;;;;9.23;4.18;;;17.00;99.90;;;;;;5013726;28;20030;-77
2021/10/18 13:54:33;;;;;;;9.07;4.80;;;17.00;99.90;;;;;;5025013;28;20056;-77
2021/10/18 13:56:59;;;;;;;10.55;4.63;;;17.00;99.90;;;;;;5034507;28;20061;-77
2021/10/18 13:59:24;;;;;;;10.77;4.90;;;16.50;99.90;;;;;;5033391;28;20049;-77